Time;durP1;ratioP1;P1;durP2;ratioP2;P2;SDS_P1;SDS_P2;PMS_P1;PMS_P2;Temp;Humidity;BMP_temperature;BMP_pressure;BME280_temperature;BME280_humidity;BME280_pressure;Samples;Min_cycle;Max_cycle;Signal;HPM_P1;HPM_P2
2021/11/30 00:01:08;;;;;;;7.00;2.83;;;;;;;;;;5013860;28;20017;-64
2021/11/30 00:03:36;;;;;;;6.03;3.00;;;;;;;;;;5011592;28;20037;-65
2021/11/30 00:06:03;;;;;;;5.07;2.92;;;;;;;;;;5008508;28;20067;-64
2021/11/30 00:08:30;;;;;;;4.68;2.92;;;;;;;;;;5027328;28;20064;-64
2021/11/30 00:10:58;;;;;;;;;;;;;;;;;;5027407;28;20047;-64
2021/11/30 00:13:25;;;;;;;5.43;2.78;;;;;;;;;;5021052;28;19921;-64
2021/11/30 00:15:52;;;;;;;8.85;3.28;;;;;;;;;;5027107;28;20532;-64
2021/11/30 00:18:18;;;;;;;6.30;3.10;;;;;;;;;;5022676;28;20147;-65
2021/11/30 00:20:45;;;;;;;5.45;2.75;;;;;;;;;;5018715;28;20032;-64
2021/11/30 00:23:12;;;;;;;7.60;3.17;;;;;;;;;;5027900;28;20036;-64
2021/11/30 00:25:38;;;;;;;5.95;3.03;;;;;;;;;;5020970;28;20076;-64
2021/11/30 00:28:04;;;;;;;8.00;3.08;;;;;;;;;;5028785;28;20508;-64
2021/11/30 00:30:32;;;;;;;8.57;2.90;;;;;;;;;;5024735;28;20144;-64
2021/11/30 00:32:59;;;;;;;7.63;3.00;;;;;;;;;;5025865;28;20055;-64
2021/11/30 00:35:25;;;;;;;4.68;2.63;;;;;;;;;;5025586;28;20068;-64
2021/11/30 00:37:51;;;;;;;7.32;2.78;;;;;;;;;;5022837;28;20636;-64
2021/11/30 00:40:17;;;;;;;4.53;2.88;;;;;;;;;;5024583;28;20033;-64
2021/11/30 00:42:43;;;;;;;5.82;2.80;;;;;;;;;;5010396;28;20108;-64
2021/11/30 00:45:09;;;;;;;5.90;2.90;;;;;;;;;;5026438;28;20040;-64
2021/11/30 00:47:44;;;;;;;5.70;3.45;;;;;;;;;;5027314;28;20057;-64
2021/11/30 00:50:10;;;;;;;5.05;3.00;;;;;;;;;;5023121;28;20068;-64
2021/11/30 00:52:36;;;;;;;8.02;3.45;;;;;;;;;;5022354;28;20743;-64
2021/11/30 00:55:02;;;;;;;12.25;3.47;;;;;;;;;;5029933;28;20044;-64
2021/11/30 00:57:27;;;;;;;6.13;3.10;;;;;;;;;;5030259;28;20963;-64
2021/11/30 00:59:53;;;;;;;5.35;3.30;;;;;;;;;;5027618;28;20143;-64
2021/11/30 01:02:18;;;;;;;8.43;3.58;;;;;;;;;;5025588;28;20071;-64
2021/11/30 01:04:45;;;;;;;7.18;3.05;;;;;;;;;;5030774;28;20160;-64
2021/11/30 01:07:11;;;;;;;8.50;3.07;;;;;;;;;;5030313;28;20033;-64
2021/11/30 01:09:39;;;;;;;6.15;3.22;;;;;;;;;;5028779;28;20078;-64
2021/11/30 01:12:05;;;;;;;6.53;3.30;;;;;;;;;;5029824;28;20041;-65
2021/11/30 01:14:31;;;;;;;5.38;2.85;;;;;;;;;;5005918;28;20132;-64
2021/11/30 01:16:58;;;;;;;6.82;2.97;;;;;;;;;;5028273;28;20061;-64
2021/11/30 01:19:25;;;;;;;5.20;2.80;;;;;;;;;;5027612;28;20033;-64
2021/11/30 01:21:52;;;;;;;5.93;3.00;;;;;;;;;;5031331;28;20347;-64
2021/11/30 01:24:17;;;;;;;5.22;2.78;;;;;;;;;;5029683;28;20025;-64
2021/11/30 01:26:42;;;;;;;8.30;3.35;;;;;;;;;;5013248;28;20041;-64
2021/11/30 01:29:08;;;;;;;7.85;3.00;;;;;;;;;;5012204;28;20048;-64
2021/11/30 01:31:34;;;;;;;6.75;3.30;;;;;;;;;;5029475;28;20018;-64
2021/11/30 01:34:00;;;;;;;4.70;2.58;;;;;;;;;;5011057;28;20060;-64
2021/11/30 01:36:25;;;;;;;6.30;2.80;;;;;;;;;;5031461;28;20157;-64
2021/11/30 01:38:52;;;;;;;7.35;3.05;;;;;;;;;;5023119;28;20133;-64
2021/11/30 01:41:18;;;;;;;5.85;3.15;;;;;;;;;;5031312;28;20610;-64
2021/11/30 01:43:44;;;;;;;5.63;2.72;;;;;;;;;;5028118;28;20033;-64
2021/11/30 01:46:28;;;;;;;5.55;2.60;;;;;;;;;;5030716;28;20080;-65
2021/11/30 01:49:16;;;;;;;7.03;3.13;;;;;;;;;;5028231;28;20036;-64
2021/11/30 01:51:41;;;;;;;5.07;2.42;;;;;;;;;;5008826;28;20030;-64
2021/11/30 01:54:07;;;;;;;6.30;3.08;;;;;;;;;;5010458;28;20072;-64
2021/11/30 01:56:32;;;;;;;9.15;2.85;;;;;;;;;;5031634;28;20039;-64
2021/11/30 01:58:58;;;;;;;6.95;2.60;;;;;;;;;;5017514;28;20800;-64
2021/11/30 02:01:23;;;;;;;3.72;2.42;;;;;;;;;;5039957;28;20017;-64
2021/11/30 02:03:50;;;;;;;4.88;2.60;;;;;;;;;;5043108;28;20024;-64
2021/11/30 02:06:16;;;;;;;7.40;2.60;;;;;;;;;;5043507;28;20029;-65
2021/11/30 02:08:42;;;;;;;5.82;2.67;;;;;;;;;;5040011;28;20033;-64
2021/11/30 02:11:07;;;;;;;5.10;2.55;;;;;;;;;;5040406;28;20084;-64
2021/11/30 02:13:33;;;;;;;6.72;2.90;;;;;;;;;;5024584;28;20103;-64
2021/11/30 02:16:01;;;;;;;5.90;2.90;;;;;;;;;;5040126;28;20048;-64
2021/11/30 02:18:27;;;;;;;5.55;2.80;;;;;;;;;;5041309;28;20643;-64
2021/11/30 02:20:59;;;;;;;4.75;2.55;;;;;;;;;;5038129;28;20020;-64
2021/11/30 02:26:09;;;;;;;7.50;2.78;;;;;;;;;;5040977;28;20057;-64
2021/11/30 02:28:35;;;;;;;6.38;2.67;;;;;;;;;;5044489;28;20098;-64
2021/11/30 02:31:01;;;;;;;5.63;2.25;;;;;;;;;;5026958;28;20120;-64
2021/11/30 02:33:26;;;;;;;5.43;2.50;;;;;;;;;;5025562;28;20128;-64
2021/11/30 02:35:53;;;;;;;7.90;2.90;;;;;;;;;;5024408;28;20035;-64
2021/11/30 02:38:18;;;;;;;6.35;2.70;;;;;;;;;;5044940;28;20032;-64
2021/11/30 02:40:44;;;;;;;10.43;3.05;;;;;;;;;;5042304;28;20021;-64
2021/11/30 02:43:09;;;;;;;5.47;2.80;;;;;;;;;;5047140;28;20048;-64
2021/11/30 02:45:35;;;;;;;7.60;2.80;;;;;;;;;;5025549;28;20028;-65
2021/11/30 02:48:00;;;;;;;5.80;2.83;;;;;;;;;;5024706;28;20029;-64
2021/11/30 02:50:27;;;;;;;7.50;3.53;;;;;;;;;;5020699;28;20029;-64
2021/11/30 02:52:54;;;;;;;5.30;3.05;;;;;;;;;;5046510;28;20123;-65
2021/11/30 02:55:22;;;;;;;5.38;2.92;;;;;;;;;;5021150;28;20036;-64
2021/11/30 02:57:48;;;;;;;6.10;3.05;;;;;;;;;;5022301;28;20438;-64
2021/11/30 03:00:13;;;;;;;6.25;3.10;;;;;;;;;;5021640;28;20029;-64
2021/11/30 03:02:39;;;;;;;7.55;2.95;;;;;;;;;;5015533;28;20025;-64
2021/11/30 03:05:05;;;;;;;5.80;3.33;;;;;;;;;;5022506;28;20160;-64
2021/11/30 03:07:38;;;;;;;5.32;3.15;;;;;;;;;;5026111;28;20061;-64
2021/11/30 03:10:10;;;;;;;6.50;3.53;;;;;;;;;;5023940;28;20183;-64
2021/11/30 03:12:36;;;;;;;7.85;3.40;;;;;;;;;;5043839;28;20041;-64
2021/11/30 03:15:10;;;;;;;5.53;3.30;;;;;;;;;;5040109;28;20029;-64
2021/11/30 03:17:37;;;;;;;6.10;3.45;;;;;;;;;;5034643;28;20051;-64
2021/11/30 03:20:04;;;;;;;4.90;3.40;;;;;;;;;;5022910;28;20462;-64
2021/11/30 03:22:30;;;;;;;7.30;3.95;;;;;;;;;;5040197;28;20032;-64
2021/11/30 03:24:56;;;;;;;8.13;3.55;;;;;;;;;;5031783;28;20049;-64
2021/11/30 03:27:21;;;;;;;7.43;3.78;;;;;;;;;;5022234;28;20033;-64
2021/11/30 03:29:47;;;;;;;9.65;3.70;;;;;;;;;;5019494;28;20025;-65
2021/11/30 03:33:58;;;;;;;8.05;3.80;;;;;;;;;;5024844;28;20124;-64
2021/11/30 03:34:57;;;;;;;8.90;3.92;;;;;;;;;;5010306;28;20026;-64
2021/11/30 03:37:23;;;;;;;7.32;3.85;;;;;;;;;;5016050;28;20025;-64
2021/11/30 03:39:48;;;;;;;10.00;3.83;;;;;;;;;;5017743;28;20041;-64
2021/11/30 03:42:14;;;;;;;6.63;4.10;;;;;;;;;;5018721;28;20076;-64
2021/11/30 03:44:39;;;;;;;9.95;4.10;;;;;;;;;;5023057;28;20033;-64
2021/11/30 03:47:05;;;;;;;8.90;4.50;;;;;;;;;;5022071;28;20394;-64
2021/11/30 03:49:30;;;;;;;7.30;4.50;;;;;;;;;;5020688;28;20029;-64
2021/11/30 03:51:56;;;;;;;8.48;4.10;;;;;;;;;;5023822;28;20029;-64
2021/11/30 03:54:23;;;;;;;8.57;4.10;;;;;;;;;;5023806;28;20025;-64
2021/11/30 03:56:49;;;;;;;10.80;4.30;;;;;;;;;;5003861;28;20038;-65
2021/11/30 03:59:16;;;;;;;6.13;4.47;;;;;;;;;;4314129;28;10000762;-65
2021/11/30 04:01:42;;;;;;;8.45;4.50;;;;;;;;;;5021822;28;20037;-64
2021/11/30 04:04:42;;;;;;;10.15;4.38;;;;;;;;;;5020622;28;20041;-65
2021/11/30 04:06:59;;;;;;;9.23;4.68;;;;;;;;;;5017631;28;20053;-65
2021/11/30 04:09:25;;;;;;;7.15;4.30;;;;;;;;;;5010302;28;20561;-64
2021/11/30 04:11:51;;;;;;;8.05;4.15;;;;;;;;;;5021966;28;20060;-64
2021/11/30 04:14:17;;;;;;;7.68;3.97;;;;;;;;;;5020390;28;20108;-65
2021/11/30 04:16:42;;;;;;;7.97;3.83;;;;;;;;;;5022635;28;20608;-64
2021/11/30 04:19:08;;;;;;;11.50;5.47;;;;;;;;;;5017843;28;21048;-64
2021/11/30 04:21:34;;;;;;;14.70;8.15;;;;;;;;;;5021853;28;20447;-65
2021/11/30 04:23:59;;;;;;;5.85;3.72;;;;;;;;;;5002698;28;20075;-64
2021/11/30 04:26:25;;;;;;;5.50;3.53;;;;;;;;;;5039967;28;20056;-65
2021/11/30 04:28:51;;;;;;;9.02;4.05;;;;;;;;;;5043067;28;20037;-64
2021/11/30 04:31:16;;;;;;;7.43;3.78;;;;;;;;;;5037936;28;20402;-64
2021/11/30 04:33:42;;;;;;;7.43;4.00;;;;;;;;;;5020788;28;20017;-64
2021/11/30 04:36:08;;;;;;;7.97;4.25;;;;;;;;;;5040970;28;20098;-65
2021/11/30 04:38:35;;;;;;;5.63;3.92;;;;;;;;;;5039153;28;20075;-64
2021/11/30 04:41:01;;;;;;;6.88;3.90;;;;;;;;;;5028069;28;20021;-64
2021/11/30 04:43:34;;;;;;;7.00;3.38;;;;;;;;;;5044632;28;20037;-64
2021/11/30 04:46:03;;;;;;;6.20;3.90;;;;;;;;;;5036085;28;20044;-64
2021/11/30 04:48:32;;;;;;;7.05;5.07;;;;;;;;;;5042180;28;20397;-65
2021/11/30 04:51:00;;;;;;;5.88;3.30;;;;;;;;;;5037559;28;20068;-64
2021/11/30 04:53:27;;;;;;;6.85;3.78;;;;;;;;;;5024592;28;20037;-65
2021/11/30 04:55:53;;;;;;;;;;;;;;;;;;5038249;28;20021;-64
2021/11/30 04:58:18;;;;;;;5.05;3.05;;;;;;;;;;5041131;28;19939;-65
2021/11/30 05:00:46;;;;;;;4.85;3.38;;;;;;;;;;5036915;28;20104;-65
2021/11/30 05:03:12;;;;;;;5.07;3.20;;;;;;;;;;5025055;28;20063;-64
2021/11/30 05:05:38;;;;;;;4.18;3.10;;;;;;;;;;5038995;28;20069;-65
2021/11/30 05:08:04;;;;;;;3.77;2.93;;;;;;;;;;5042757;28;20025;-65
2021/11/30 05:10:29;;;;;;;8.70;2.80;;;;;;;;;;5039512;28;20271;-65
2021/11/30 05:12:56;;;;;;;4.47;3.03;;;;;;;;;;5031103;28;20056;-64
2021/11/30 05:15:21;;;;;;;4.10;3.10;;;;;;;;;;5035345;28;20410;-65
2021/11/30 05:17:47;;;;;;;3.70;2.20;;;;;;;;;;5041536;28;20064;-64
2021/11/30 05:20:13;;;;;;;7.40;3.90;;;;;;;;;;5038269;28;20091;-65
2021/11/30 05:22:39;;;;;;;5.28;3.30;;;;;;;;;;5040004;28;20041;-65
2021/11/30 05:25:06;;;;;;;6.10;3.00;;;;;;;;;;5038337;28;20044;-65
2021/11/30 05:27:38;;;;;;;4.82;2.65;;;;;;;;;;5035938;28;20037;-65
2021/11/30 05:30:10;;;;;;;4.10;2.47;;;;;;;;;;5039521;28;20025;-65
2021/11/30 05:32:36;;;;;;;3.58;2.08;;;;;;;;;;5037372;28;20044;-65
2021/11/30 05:35:02;;;;;;;4.55;2.80;;;;;;;;;;5022662;28;20036;-65
2021/11/30 05:37:28;;;;;;;3.27;2.50;;;;;;;;;;5026358;28;20353;-65
2021/11/30 05:39:53;;;;;;;4.57;2.60;;;;;;;;;;5039847;28;20721;-65
2021/11/30 05:42:19;;;;;;;3.60;2.70;;;;;;;;;;5049573;28;20497;-65
2021/11/30 05:44:45;;;;;;;3.25;2.50;;;;;;;;;;5031977;28;20597;-65
2021/11/30 05:47:10;;;;;;;4.50;2.35;;;;;;;;;;5025490;28;20036;-65
2021/11/30 05:49:36;;;;;;;4.65;3.03;;;;;;;;;;5045557;28;20401;-65
2021/11/30 05:52:01;;;;;;;5.70;2.65;;;;;;;;;;5042981;28;20099;-65
2021/11/30 05:54:27;;;;;;;3.53;2.40;;;;;;;;;;5043613;28;20092;-64
2021/11/30 05:56:52;;;;;;;3.35;2.50;;;;;;;;;;5045823;28;20047;-64
2021/11/30 05:59:19;;;;;;;4.30;2.88;;;;;;;;;;5020034;28;20036;-65
2021/11/30 06:01:46;;;;;;;3.65;2.72;;;;;;;;;;5043638;28;20078;-65
2021/11/30 06:04:11;;;;;;;3.30;2.47;;;;;;;;;;5044053;28;20604;-65
2021/11/30 06:06:37;;;;;;;3.88;2.72;;;;;;;;;;5039297;28;20087;-65
2021/11/30 06:09:06;;;;;;;3.60;2.90;;;;;;;;;;5043229;28;20176;-65
2021/11/30 06:11:33;;;;;;;4.10;2.67;;;;;;;;;;5040635;28;20105;-65
2021/11/30 06:13:59;;;;;;;4.45;2.72;;;;;;;;;;5039733;28;20095;-65
2021/11/30 06:16:24;;;;;;;3.25;2.47;;;;;;;;;;5034337;28;20037;-65
2021/11/30 06:18:50;;;;;;;3.10;2.72;;;;;;;;;;5042954;28;20066;-65
2021/11/30 06:21:17;;;;;;;5.28;2.67;;;;;;;;;;5037480;28;20025;-65
2021/11/30 06:23:43;;;;;;;4.28;2.60;;;;;;;;;;5043227;28;20091;-64
2021/11/30 06:26:10;;;;;;;4.18;2.55;;;;;;;;;;5027658;28;20147;-65
2021/11/30 06:28:35;;;;;;;3.42;2.45;;;;;;;;;;5028527;28;20037;-65
2021/11/30 06:31:02;;;;;;;3.70;2.60;;;;;;;;;;5032015;28;20036;-64
2021/11/30 06:33:28;;;;;;;4.28;2.30;;;;;;;;;;5045893;28;20032;-65
2021/11/30 06:35:53;;;;;;;2.55;2.13;;;;;;;;;;5023363;28;20056;-65
2021/11/30 06:38:18;;;;;;;3.45;2.35;;;;;;;;;;5045017;28;20020;-65
2021/11/30 06:40:44;;;;;;;3.75;2.30;;;;;;;;;;5038323;28;20064;-65
2021/11/30 06:43:09;;;;;;;3.67;2.40;;;;;;;;;;5043716;28;20378;-65
2021/11/30 06:45:35;;;;;;;3.40;2.20;;;;;;;;;;5041600;28;20052;-65
2021/11/30 06:48:01;;;;;;;4.50;2.72;;;;;;;;;;5045856;28;20540;-65
2021/11/30 06:50:26;;;;;;;3.30;2.50;;;;;;;;;;4999368;28;20239;-65
2021/11/30 06:52:52;;;;;;;3.42;2.20;;;;;;;;;;5009397;28;20029;-64
2021/11/30 06:55:17;;;;;;;7.28;4.57;;;;;;;;;;5025799;28;20163;-65
2021/11/30 06:57:43;;;;;;;3.05;2.00;;;;;;;;;;5022884;28;20037;-64
2021/11/30 07:00:11;;;;;;;2.42;2.10;;;;;;;;;;5020027;28;20037;-65
2021/11/30 07:02:37;;;;;;;3.95;2.92;;;;;;;;;;5029898;28;20478;-65
2021/11/30 07:06:10;;;;;;;2.42;1.92;;;;;;;;;;5012665;28;20041;-65
2021/11/30 07:08:23;;;;;;;2.60;1.97;;;;;;;;;;5018743;28;20045;-64
2021/11/30 07:11:01;;;;;;;2.22;1.90;;;;;;;;;;5008560;28;20132;-65
2021/11/30 07:13:31;;;;;;;2.78;1.90;;;;;;;;;;5031123;28;20029;-64
2021/11/30 07:16:02;;;;;;;2.53;1.95;;;;;;;;;;5039753;28;20052;-64
2021/11/30 07:18:29;;;;;;;2.25;1.73;;;;;;;;;;5039698;28;20029;-65
2021/11/30 07:20:56;;;;;;;2.28;1.60;;;;;;;;;;5028461;28;20229;-65
2021/11/30 07:23:22;;;;;;;2.92;2.28;;;;;;;;;;5026055;28;20025;-64
2021/11/30 07:25:51;;;;;;;2.00;1.80;;;;;;;;;;5031173;28;20040;-65
2021/11/30 07:28:30;;;;;;;2.55;1.80;;;;;;;;;;5041226;28;20367;-65
2021/11/30 07:31:10;;;;;;;2.00;1.52;;;;;;;;;;5038678;28;20033;-65
2021/11/30 07:33:37;;;;;;;1.98;1.52;;;;;;;;;;5038285;28;20069;-64
2021/11/30 07:36:05;;;;;;;1.55;1.40;;;;;;;;;;5036302;28;20094;-64
2021/11/30 07:38:31;;;;;;;1.60;1.48;;;;;;;;;;5039098;28;20087;-65
2021/11/30 07:40:57;;;;;;;1.40;1.30;;;;;;;;;;5038781;28;20052;-64
2021/11/30 07:43:24;;;;;;;;;;;;;;;;;;5038073;28;20072;-64
2021/11/30 07:45:50;;;;;;;2.05;1.48;;;;;;;;;;5032109;28;20317;-65
2021/11/30 07:48:17;;;;;;;2.00;1.20;;;;;;;;;;5021732;28;20423;-64
2021/11/30 07:50:43;;;;;;;1.88;1.10;;;;;;;;;;5020274;28;20075;-66
2021/11/30 07:53:09;;;;;;;1.38;1.08;;;;;;;;;;5021577;28;20040;-65
2021/11/30 07:55:36;;;;;;;1.60;1.27;;;;;;;;;;5025172;28;20037;-65
2021/11/30 07:58:02;;;;;;;1.73;1.23;;;;;;;;;;5029233;28;20371;-65
2021/11/30 08:00:28;;;;;;;1.80;1.50;;;;;;;;;;5023917;28;20037;-65
2021/11/30 08:02:53;;;;;;;2.03;1.20;;;;;;;;;;5031457;28;20034;-65
2021/11/30 08:05:19;;;;;;;1.10;1.00;;;;;;;;;;5002915;28;20060;-65
2021/11/30 08:07:44;;;;;;;1.13;1.02;;;;;;;;;;5017745;28;20040;-65
2021/11/30 08:10:14;;;;;;;0.90;0.80;;;;;;;;;;5024974;28;20025;-65
2021/11/30 08:12:42;;;;;;;2.05;1.10;;;;;;;;;;5014172;28;20024;-65
2021/11/30 08:15:08;;;;;;;1.35;1.00;;;;;;;;;;5020281;28;20022;-65
2021/11/30 08:17:33;;;;;;;1.52;1.10;;;;;;;;;;5030688;28;20033;-65
2021/11/30 08:20:00;;;;;;;1.20;1.00;;;;;;;;;;5031248;28;20055;-64
2021/11/30 08:22:26;;;;;;;1.15;0.75;;;;;;;;;;5042539;28;20485;-65
2021/11/30 08:24:51;;;;;;;2.15;0.90;;;;;;;;;;4342449;28;10000760;-65
2021/11/30 08:27:19;;;;;;;0.95;0.82;;;;;;;;;;5023420;28;20530;-65
2021/11/30 08:29:47;;;;;;;1.10;0.95;;;;;;;;;;5033606;28;20037;-65
2021/11/30 08:32:12;;;;;;;1.70;1.00;;;;;;;;;;5016451;28;20132;-65
2021/11/30 08:34:40;;;;;;;2.00;0.80;;;;;;;;;;5020955;28;20450;-65
2021/11/30 08:37:08;;;;;;;1.10;0.90;;;;;;;;;;5028373;28;20022;-65
2021/11/30 08:39:35;;;;;;;0.80;0.70;;;;;;;;;;5027913;28;20720;-65
2021/11/30 08:42:03;;;;;;;2.25;1.00;;;;;;;;;;5029697;28;20029;-65
2021/11/30 08:44:30;;;;;;;1.25;0.88;;;;;;;;;;5028882;28;20033;-65
2021/11/30 08:46:59;;;;;;;;;;;;;;;;;;4770727;28;10000751;-65
2021/11/30 08:49:27;;;;;;;1.00;0.70;;;;;;;;;;5004106;28;19913;-66
2021/11/30 08:51:53;;;;;;;;;;;;;;;;;;5007640;28;20041;-65
2021/11/30 08:54:19;;;;;;;1.20;0.90;;;;;;;;;;5021244;28;21747;-65
2021/11/30 08:56:44;;;;;;;0.70;0.60;;;;;;;;;;5025503;28;20083;-65
2021/11/30 08:59:11;;;;;;;1.00;0.90;;;;;;;;;;5022874;28;20517;-66
2021/11/30 09:01:38;;;;;;;0.95;0.60;;;;;;;;;;5025963;28;20069;-65
2021/11/30 09:04:03;;;;;;;1.52;0.63;;;;;;;;;;5023992;28;20035;-65
2021/11/30 09:06:29;;;;;;;0.80;0.60;;;;;;;;;;5001618;28;20033;-65
2021/11/30 09:08:54;;;;;;;0.80;0.63;;;;;;;;;;5024357;28;20425;-65
2021/11/30 09:11:20;;;;;;;1.33;0.80;;;;;;;;;;5028138;28;20030;-65
2021/11/30 09:13:47;;;;;;;1.33;0.63;;;;;;;;;;5031415;28;20036;-65
2021/11/30 09:16:13;;;;;;;1.10;0.63;;;;;;;;;;5029913;28;20017;-65
2021/11/30 09:18:38;;;;;;;0.70;0.70;;;;;;;;;;5022982;28;20029;-65
2021/11/30 09:21:04;;;;;;;1.10;0.68;;;;;;;;;;5028296;28;20033;-65
2021/11/30 09:23:29;;;;;;;0.57;0.50;;;;;;;;;;5028466;28;20047;-65
2021/11/30 09:25:57;;;;;;;0.60;0.60;;;;;;;;;;5026949;28;20049;-65
2021/11/30 09:28:23;;;;;;;0.90;0.65;;;;;;;;;;5027318;28;20021;-65
2021/11/30 09:30:49;;;;;;;1.05;0.50;;;;;;;;;;5020780;28;20071;-65
2021/11/30 09:33:14;;;;;;;0.70;0.57;;;;;;;;;;5010610;28;20029;-65
2021/11/30 09:35:40;;;;;;;0.50;0.50;;;;;;;;;;5023862;28;20359;-64
2021/11/30 09:38:08;;;;;;;1.70;0.80;;;;;;;;;;5029237;28;20121;-65
2021/11/30 09:40:35;;;;;;;0.90;0.77;;;;;;;;;;5028538;28;20029;-65
2021/11/30 09:43:00;;;;;;;0.73;0.57;;;;;;;;;;5024462;28;20089;-64
2021/11/30 09:45:27;;;;;;;0.77;0.60;;;;;;;;;;5013059;28;20038;-64
2021/11/30 09:47:54;;;;;;;0.68;0.60;;;;;;;;;;5012680;28;20091;-64
2021/11/30 09:50:23;;;;;;;1.35;0.77;;;;;;;;;;5027682;28;20108;-65
2021/11/30 09:52:54;;;;;;;0.80;0.60;;;;;;;;;;5025238;28;20136;-64
2021/11/30 09:55:22;;;;;;;1.20;0.60;;;;;;;;;;5020677;28;20032;-64
2021/11/30 09:57:52;;;;;;;0.90;0.80;;;;;;;;;;5030145;28;20025;-65
2021/11/30 10:00:20;;;;;;;1.05;0.80;;;;;;;;;;5028401;28;20037;-65
2021/11/30 10:02:47;;;;;;;0.73;0.57;;;;;;;;;;5030636;28;20029;-64
2021/11/30 10:05:13;;;;;;;0.90;0.70;;;;;;;;;;5026802;28;20041;-65
2021/11/30 10:07:44;;;;;;;1.65;0.80;;;;;;;;;;5007964;28;20087;-65
2021/11/30 10:10:19;;;;;;;1.23;0.73;;;;;;;;;;5024338;28;20033;-65
2021/11/30 10:12:53;;;;;;;1.20;0.80;;;;;;;;;;5011323;28;20044;-65
2021/11/30 10:15:18;;;;;;;1.02;0.80;;;;;;;;;;5027485;28;20040;-64
2021/11/30 10:17:44;;;;;;;0.90;0.60;;;;;;;;;;5028731;28;20037;-64
2021/11/30 10:20:13;;;;;;;3.15;1.70;;;;;;;;;;5017618;28;20029;-64
2021/11/30 10:22:51;;;;;;;2.03;1.20;;;;;;;;;;5029898;28;20025;-65
2021/11/30 10:25:21;;;;;;;2.13;0.82;;;;;;;;;;5028100;28;20127;-65
2021/11/30 10:27:51;;;;;;;1.30;0.65;;;;;;;;;;5024646;28;20636;-65
2021/11/30 10:30:20;;;;;;;1.05;0.60;;;;;;;;;;5023779;28;20025;-64
2021/11/30 10:32:46;;;;;;;1.02;0.73;;;;;;;;;;5002988;28;20033;-64
2021/11/30 10:35:16;;;;;;;0.88;0.60;;;;;;;;;;5024844;28;20022;-64
2021/11/30 10:37:44;;;;;;;1.30;0.68;;;;;;;;;;5023875;28;20056;-64
2021/11/30 10:40:14;;;;;;;3.30;1.85;;;;;;;;;;5015934;28;20391;-64
2021/11/30 10:42:49;;;;;;;0.88;0.60;;;;;;;;;;5026367;28;20087;-65
2021/11/30 10:45:24;;;;;;;0.80;0.50;;;;;;;;;;5020913;28;20037;-64
2021/11/30 10:47:50;;;;;;;1.52;0.55;;;;;;;;;;5026401;28;20087;-65
2021/11/30 10:50:21;;;;;;;0.45;0.40;;;;;;;;;;5024114;28;20033;-64
2021/11/30 10:52:50;;;;;;;0.70;0.52;;;;;;;;;;5027284;28;20018;-65
2021/11/30 10:55:18;;;;;;;0.50;0.30;;;;;;;;;;5025723;28;20654;-64
2021/11/30 10:57:47;;;;;;;1.00;0.52;;;;;;;;;;5022201;28;20021;-64
2021/11/30 11:00:16;;;;;;;1.10;0.40;;;;;;;;;;5023950;28;20028;-64
2021/11/30 11:03:00;;;;;;;1.88;0.40;;;;;;;;;;5025950;28;20110;-64
2021/11/30 11:05:28;;;;;;;1.75;0.50;;;;;;;;;;5023210;28;20079;-64
2021/11/30 11:07:58;;;;;;;0.40;0.40;;;;;;;;;;5020550;28;20017;-65
2021/11/30 11:10:25;;;;;;;1.92;0.88;;;;;;;;;;5023741;28;20022;-65
2021/11/30 11:12:51;;;;;;;1.02;0.40;;;;;;;;;;5021732;28;20022;-65
2021/11/30 11:15:38;;;;;;;0.68;0.40;;;;;;;;;;5020447;28;20029;-65
2021/11/30 11:18:23;;;;;;;0.50;0.35;;;;;;;;;;5006183;28;20079;-65
2021/11/30 11:21:10;;;;;;;0.40;0.38;;;;;;;;;;5012150;28;20026;-65
2021/11/30 11:23:38;;;;;;;0.20;0.20;;;;;;;;;;5019845;28;20025;-65
2021/11/30 11:26:22;;;;;;;0.43;0.30;;;;;;;;;;5016824;28;20058;-65
2021/11/30 11:28:49;;;;;;;0.57;0.28;;;;;;;;;;5026048;28;20032;-65
2021/11/30 11:31:15;;;;;;;0.93;0.35;;;;;;;;;;5007993;28;20064;-65
2021/11/30 11:33:41;;;;;;;1.48;0.40;;;;;;;;;;5021146;28;20446;-65
2021/11/30 11:36:07;;;;;;;0.50;0.30;;;;;;;;;;5027577;28;20037;-65
2021/11/30 11:38:33;;;;;;;0.30;0.30;;;;;;;;;;5025062;28;20403;-64
2021/11/30 11:41:01;;;;;;;0.68;0.30;;;;;;;;;;5024012;28;20041;-65
2021/11/30 11:43:26;;;;;;;0.30;0.25;;;;;;;;;;5026128;28;20102;-64
2021/11/30 11:45:53;;;;;;;0.57;0.30;;;;;;;;;;5020307;28;20017;-65
2021/11/30 11:48:20;;;;;;;0.65;0.28;;;;;;;;;;5022911;28;20137;-65
2021/11/30 11:50:57;;;;;;;0.70;0.35;;;;;;;;;;5024881;28;20029;-65
2021/11/30 11:53:26;;;;;;;0.47;0.40;;;;;;;;;;5027531;28;20033;-65
2021/11/30 11:56:09;;;;;;;0.68;0.40;;;;;;;;;;5007065;28;20120;-65
2021/11/30 11:58:35;;;;;;;1.08;0.40;;;;;;;;;;5003252;28;20144;-65
2021/11/30 12:01:02;;;;;;;0.70;0.40;;;;;;;;;;5025707;28;20037;-65
2021/11/30 12:03:58;;;;;;;1.00;0.50;;;;;;;;;;5026721;28;20433;-65
2021/11/30 12:06:26;;;;;;;0.40;0.30;;;;;;;;;;5026627;28;20031;-65
2021/11/30 12:09:18;;;;;;;0.68;0.30;;;;;;;;;;5025524;28;20057;-65
2021/11/30 12:11:56;;;;;;;0.50;0.30;;;;;;;;;;5018822;28;20018;-65
2021/11/30 12:14:37;;;;;;;0.40;0.40;;;;;;;;;;5004781;28;20037;-65
2021/11/30 12:17:13;;;;;;;0.43;0.30;;;;;;;;;;5026301;28;20028;-65
2021/11/30 12:19:39;;;;;;;1.15;0.70;;;;;;;;;;5025255;28;20029;-65
2021/11/30 12:22:06;;;;;;;0.57;0.40;;;;;;;;;;5018187;28;20033;-65
2021/11/30 12:24:34;;;;;;;0.40;0.40;;;;;;;;;;5004890;28;20287;-65
2021/11/30 12:27:22;;;;;;;0.30;0.30;;;;;;;;;;5018683;28;20042;-65
2021/11/30 12:29:49;;;;;;;1.40;0.50;;;;;;;;;;5023863;28;20048;-65
2021/11/30 12:32:21;;;;;;;0.73;0.43;;;;;;;;;;5025531;28;20044;-64
2021/11/30 12:34:49;;;;;;;0.40;0.30;;;;;;;;;;5017836;28;20022;-65
2021/11/30 12:37:26;;;;;;;1.05;0.40;;;;;;;;;;5025314;28;20032;-64
2021/11/30 12:40:10;;;;;;;;;;;;;;;;;;5023488;28;20086;-64
2021/11/30 12:42:39;;;;;;;0.60;0.40;;;;;;;;;;5022879;28;19916;-65
2021/11/30 12:45:10;;;;;;;0.90;0.30;;;;;;;;;;5025250;28;20029;-65
2021/11/30 12:47:36;;;;;;;2.90;1.38;;;;;;;;;;5020630;28;20083;-64
2021/11/30 12:50:05;;;;;;;1.17;0.88;;;;;;;;;;5023899;28;20437;-65
2021/11/30 12:52:39;;;;;;;0.90;0.50;;;;;;;;;;5025903;28;20591;-64
2021/11/30 12:55:11;;;;;;;0.30;0.30;;;;;;;;;;4994537;28;20025;-65
2021/11/30 12:57:39;;;;;;;0.50;0.40;;;;;;;;;;5022009;28;20032;-65
2021/11/30 13:00:07;;;;;;;2.53;0.90;;;;;;;;;;5017484;28;20053;-65
2021/11/30 13:02:36;;;;;;;0.52;0.30;;;;;;;;;;5025795;28;20026;-64
2021/11/30 13:05:10;;;;;;;0.82;0.40;;;;;;;;;;5022466;28;20050;-64
2021/11/30 13:07:56;;;;;;;0.63;0.47;;;;;;;;;;5022866;28;20031;-65
2021/11/30 13:10:38;;;;;;;0.65;0.52;;;;;;;;;;5026889;28;20018;-65
2021/11/30 13:13:14;;;;;;;2.13;0.40;;;;;;;;;;5023086;28;20023;-65
2021/11/30 13:15:46;;;;;;;0.90;0.35;;;;;;;;;;5027091;28;20554;-65
2021/11/30 13:18:11;;;;;;;0.45;0.35;;;;;;;;;;5027857;28;20083;-64
2021/11/30 13:20:37;;;;;;;0.73;0.30;;;;;;;;;;5027825;28;20029;-65
2021/11/30 13:23:05;;;;;;;0.50;0.40;;;;;;;;;;5025398;28;20032;-65
2021/11/30 13:25:34;;;;;;;0.57;0.38;;;;;;;;;;5013599;28;20034;-65
2021/11/30 13:28:04;;;;;;;0.70;0.30;;;;;;;;;;5024090;28;20060;-62
2021/11/30 13:30:32;;;;;;;1.85;0.75;;;;;;;;;;5029549;28;20080;-64
2021/11/30 13:33:02;;;;;;;0.98;0.55;;;;;;;;;;5028675;28;20086;-64
2021/11/30 13:35:36;;;;;;;0.40;0.40;;;;;;;;;;5026832;28;20428;-64
2021/11/30 13:38:22;;;;;;;1.38;0.40;;;;;;;;;;5020068;28;20029;-64
2021/11/30 13:40:56;;;;;;;0.43;0.40;;;;;;;;;;5013786;28;20025;-64
2021/11/30 13:43:27;;;;;;;0.50;0.40;;;;;;;;;;5020453;28;20044;-64
2021/11/30 13:45:58;;;;;;;0.80;0.40;;;;;;;;;;5024364;28;20060;-64
2021/11/30 13:48:28;;;;;;;0.40;0.30;;;;;;;;;;5021966;28;20579;-64
2021/11/30 13:50:57;;;;;;;0.40;0.40;;;;;;;;;;5007757;28;20552;-64
2021/11/30 13:53:25;;;;;;;0.55;0.38;;;;;;;;;;5010773;28;20108;-64
2021/11/30 13:55:55;;;;;;;2.65;1.75;;;;;;;;;;5025811;28;20478;-64
2021/11/30 13:58:42;;;;;;;1.48;0.77;;;;;;;;;;5026908;28;20056;-64
2021/11/30 14:01:19;;;;;;;0.82;0.30;;;;;;;;;;5013164;28;20060;-64
2021/11/30 14:03:51;;;;;;;1.13;0.40;;;;;;;;;;5027081;28;20037;-64
2021/11/30 14:06:36;;;;;;;1.02;0.40;;;;;;;;;;5027740;28;20083;-64
2021/11/30 14:09:06;;;;;;;0.45;0.40;;;;;;;;;;5025821;28;20052;-63
2021/11/30 14:11:33;;;;;;;1.20;0.32;;;;;;;;;;5027079;28;20517;-64
2021/11/30 14:13:59;;;;;;;1.65;0.40;;;;;;;;;;5022422;28;20149;-64
2021/11/30 14:16:25;;;;;;;0.85;0.40;;;;;;;;;;5027304;28;20078;-64
2021/11/30 14:18:55;;;;;;;1.05;0.40;;;;;;;;;;5019403;28;20609;-64
2021/11/30 14:21:24;;;;;;;0.55;0.30;;;;;;;;;;5025463;28;20030;-64
2021/11/30 14:24:16;;;;;;;1.38;0.50;;;;;;;;;;5026096;28;20655;-64
2021/11/30 14:26:45;;;;;;;0.25;0.20;;;;;;;;;;5021240;28;20479;-64
2021/11/30 14:29:17;;;;;;;0.85;0.40;;;;;;;;;;5009110;28;20113;-64
2021/11/30 14:32:03;;;;;;;2.63;1.10;;;;;;;;;;5028793;28;20045;-64
2021/11/30 14:34:38;;;;;;;0.20;0.20;;;;;;;;;;5025624;28;20389;-64
2021/11/30 14:37:21;;;;;;;2.00;0.82;;;;;;;;;;5028236;28;20030;-64
2021/11/30 14:39:49;;;;;;;6.95;2.90;;;;;;;;;;5019829;28;20037;-64
2021/11/30 14:42:36;;;;;;;1.55;0.30;;;;;;;;;;5028633;28;20033;-64
2021/11/30 14:45:28;;;;;;;0.25;0.20;;;;;;;;;;5026948;28;20614;-64
2021/11/30 14:48:23;;;;;;;1.95;0.90;;;;;;;;;;5029418;28;20272;-64
2021/11/30 14:50:52;;;;;;;0.43;0.25;;;;;;;;;;5020075;28;20072;-64
2021/11/30 14:53:21;;;;;;;5.78;2.63;;;;;;;;;;5011919;28;20471;-64
2021/11/30 14:55:49;;;;;;;2.45;0.75;;;;;;;;;;5026696;28;20036;-65